Time;durP1;ratioP1;P1;durP2;ratioP2;P2;SDS_P1;SDS_P2;PMS_P1;PMS_P2;Temp;Humidity;BMP_temperature;BMP_pressure;BME280_temperature;BME280_humidity;BME280_pressure;Samples;Min_cycle;Max_cycle;Signal;HPM_P1;HPM_P2
2022/07/03 00:01:23;;;;;;;1.75;1.10;;;19.20;99.90;;;;;;5024659;28;20022;-69
2022/07/03 00:03:49;;;;;;;1.27;1.10;;;19.20;99.90;;;;;;5024869;28;20065;-69
2022/07/03 00:06:15;;;;;;;1.83;1.20;;;19.20;99.90;;;;;;5024951;28;20402;-70
2022/07/03 00:08:41;;;;;;;7.57;1.40;;;19.20;99.90;;;;;;5024576;28;20045;-69
2022/07/03 00:11:08;;;;;;;1.20;1.05;;;19.20;99.90;;;;;;5024480;28;20018;-69
2022/07/03 00:13:34;;;;;;;1.45;1.10;;;19.20;99.90;;;;;;5025238;28;20441;-70
2022/07/03 00:16:00;;;;;;;2.28;1.05;;;19.20;99.90;;;;;;5024624;28;20064;-69
2022/07/03 00:18:26;;;;;;;4.45;1.60;;;19.10;99.90;;;;;;5024929;28;20034;-68
2022/07/03 00:21:03;;;;;;;1.77;1.35;;;19.20;99.90;;;;;;5025071;28;20022;-70
2022/07/03 00:23:46;;;;;;;4.65;1.35;;;19.10;99.90;;;;;;5024622;28;20146;-69
2022/07/03 00:26:14;;;;;;;0.82;0.77;;;19.10;99.90;;;;;;5024216;28;20034;-68
2022/07/03 00:28:41;;;;;;;2.17;1.10;;;19.10;99.90;;;;;;5024584;28;20026;-70
2022/07/03 00:31:09;;;;;;;1.23;0.98;;;19.00;99.90;;;;;;5024387;28;20080;-69
2022/07/03 00:33:36;;;;;;;2.00;1.02;;;19.00;99.90;;;;;;5023956;28;20434;-68
2022/07/03 00:36:02;;;;;;;1.15;1.05;;;19.00;99.90;;;;;;5023992;28;20018;-69
2022/07/03 00:38:28;;;;;;;1.92;1.25;;;18.90;99.90;;;;;;5023797;28;20018;-70
2022/07/03 00:40:54;;;;;;;2.35;1.38;;;18.90;99.90;;;;;;5024647;28;20085;-69
2022/07/03 00:43:21;;;;;;;2.88;1.67;;;18.90;99.90;;;;;;5023590;28;20057;-69
2022/07/03 00:45:49;;;;;;;2.45;1.50;;;18.90;99.90;;;;;;5023786;28;20028;-69
2022/07/03 00:48:16;;;;;;;2.28;1.20;;;18.80;99.90;;;;;;5023603;28;20061;-69
2022/07/03 00:50:49;;;;;;;2.47;1.30;;;18.90;99.90;;;;;;5023777;28;20037;-71
2022/07/03 00:53:27;;;;;;;3.28;1.17;;;18.80;99.90;;;;;;5023814;28;20084;-71
2022/07/03 00:55:54;;;;;;;1.80;1.20;;;18.80;99.90;;;;;;5023438;28;20026;-70
2022/07/03 00:58:20;;;;;;;3.10;1.52;;;18.80;99.90;;;;;;5023418;28;20026;-69
2022/07/03 01:00:49;;;;;;;5.82;1.30;;;18.70;99.90;;;;;;5023946;28;20045;-69
2022/07/03 01:03:17;;;;;;;2.53;1.50;;;18.70;99.90;;;;;;5023216;28;20034;-69
2022/07/03 01:05:45;;;;;;;1.83;1.30;;;18.70;99.90;;;;;;5023209;28;20041;-70
2022/07/03 01:08:45;;;;;;;2.20;1.48;;;18.60;99.90;;;;;;5023869;28;20484;-69
2022/07/03 01:11:39;;;;;;;5.30;1.60;;;18.60;99.90;;;;;;5022935;28;20024;-69
2022/07/03 01:14:13;;;;;;;1.80;1.33;;;18.50;99.90;;;;;;5023280;28;20030;-70
2022/07/03 01:16:55;;;;;;;2.00;1.58;;;18.40;99.90;;;;;;5023819;28;20037;-69
2022/07/03 01:19:34;;;;;;;6.13;1.63;;;18.40;99.90;;;;;;5023379;28;20049;-69
2022/07/03 01:22:24;;;;;;;3.28;1.80;;;18.30;99.90;;;;;;5022958;28;20026;-69
2022/07/03 01:25:12;;;;;;;1.55;1.35;;;18.20;99.90;;;;;;5023744;28;20029;-70
2022/07/03 01:27:58;;;;;;;2.17;1.33;;;18.20;99.90;;;;;;5022133;28;20114;-70
2022/07/03 01:30:25;;;;;;;1.48;0.98;;;18.10;99.90;;;;;;5023211;28;20022;-68
2022/07/03 01:33:05;;;;;;;2.10;1.55;;;18.10;99.90;;;;;;5023203;28;20029;-68
2022/07/03 01:35:37;;;;;;;2.15;1.65;;;18.00;99.90;;;;;;5023457;28;20086;-70
2022/07/03 01:38:05;;;;;;;2.95;1.60;;;18.00;99.90;;;;;;5022812;28;20037;-70
2022/07/03 01:40:34;;;;;;;2.67;1.85;;;17.90;99.90;;;;;;5022204;28;20058;-70
2022/07/03 01:43:02;;;;;;;3.97;1.48;;;17.90;99.90;;;;;;5022823;28;20030;-71
2022/07/03 01:45:28;;;;;;;2.38;1.60;;;17.90;99.90;;;;;;5023220;28;20040;-69
2022/07/03 01:47:58;;;;;;;2.00;1.80;;;17.90;99.90;;;;;;5022142;28;20132;-69
2022/07/03 01:50:24;;;;;;;2.35;1.77;;;17.80;99.90;;;;;;5023035;28;20030;-69
2022/07/03 01:52:51;;;;;;;3.28;1.77;;;17.80;99.90;;;;;;5022587;28;20041;-69
2022/07/03 01:55:20;;;;;;;4.43;2.28;;;17.80;99.90;;;;;;5021063;28;20049;-70
2022/07/03 01:57:48;;;;;;;3.25;1.63;;;17.80;99.90;;;;;;5023027;28;20104;-69
2022/07/03 02:00:21;;;;;;;3.83;1.55;;;17.70;99.90;;;;;;5022566;28;20049;-69
2022/07/03 02:03:03;;;;;;;3.07;1.90;;;17.70;99.90;;;;;;5022627;28;20038;-69
2022/07/03 02:05:48;;;;;;;3.03;2.10;;;17.70;99.90;;;;;;5022666;28;20049;-69
2022/07/03 02:08:41;;;;;;;2.58;1.40;;;17.60;99.90;;;;;;5022426;28;20497;-69
2022/07/03 02:11:16;;;;;;;4.07;1.88;;;17.60;99.90;;;;;;5021966;28;20093;-69
2022/07/03 02:13:52;;;;;;;3.38;1.75;;;17.50;99.90;;;;;;5021885;28;20085;-68
2022/07/03 02:16:21;;;;;;;2.58;1.80;;;17.50;99.90;;;;;;5022414;28;20022;-68
2022/07/03 02:18:57;;;;;;;3.60;1.60;;;17.30;99.90;;;;;;5022023;28;20068;-68
2022/07/03 02:21:28;;;;;;;2.97;2.05;;;17.40;99.90;;;;;;5021800;28;20430;-69
2022/07/03 02:24:17;;;;;;;4.60;1.98;;;17.40;99.90;;;;;;5022864;28;20028;-70
2022/07/03 02:26:52;;;;;;;3.40;2.05;;;17.40;99.90;;;;;;5022542;28;20118;-70
2022/07/03 02:29:25;;;;;;;4.38;1.88;;;17.40;99.90;;;;;;5022381;28;20029;-69
2022/07/03 02:31:59;;;;;;;4.57;1.98;;;17.30;99.90;;;;;;5022252;28;20500;-69
2022/07/03 02:34:27;;;;;;;3.45;1.58;;;17.30;99.90;;;;;;5022641;28;20064;-70
2022/07/03 02:36:59;;;;;;;2.67;2.08;;;17.20;99.90;;;;;;5022152;28;20037;-68
2022/07/03 02:39:36;;;;;;;3.42;1.90;;;17.30;99.90;;;;;;5021946;28;20062;-69
2022/07/03 02:42:19;;;;;;;2.47;2.00;;;17.20;99.90;;;;;;5022058;28;20030;-69
2022/07/03 02:44:52;;;;;;;3.28;2.13;;;17.30;99.90;;;;;;5022033;28;20065;-69
2022/07/03 02:47:25;;;;;;;3.30;1.70;;;17.20;99.90;;;;;;5021452;28;20050;-69
2022/07/03 02:50:20;;;;;;;5.03;2.10;;;17.20;99.90;;;;;;5022133;28;21353;-71
2022/07/03 02:53:21;;;;;;;2.30;1.95;;;17.10;99.90;;;;;;5023812;28;20037;-69
2022/07/03 02:55:47;;;;;;;3.28;1.90;;;17.10;99.90;;;;;;5021595;28;20026;-69
2022/07/03 02:58:49;;;;;;;4.22;1.88;;;17.10;99.90;;;;;;5021637;28;20018;-69
2022/07/03 03:01:29;;;;;;;3.33;1.85;;;17.00;99.90;;;;;;5021489;28;20037;-70
2022/07/03 03:04:21;;;;;;;4.82;2.08;;;17.00;99.90;;;;;;5020785;28;20038;-69
2022/07/03 03:06:53;;;;;;;4.57;2.28;;;16.90;99.90;;;;;;5021581;28;20569;-69
2022/07/03 03:09:35;;;;;;;4.25;1.98;;;16.90;99.90;;;;;;5022175;28;20022;-69
2022/07/03 03:12:03;;;;;;;2.50;1.60;;;16.80;99.90;;;;;;5021291;28;20022;-69
2022/07/03 03:14:40;;;;;;;4.72;2.13;;;16.80;99.90;;;;;;5020239;28;20029;-69
2022/07/03 03:17:07;;;;;;;3.60;2.17;;;16.90;99.90;;;;;;5021338;28;20410;-69
2022/07/03 03:19:47;;;;;;;5.07;2.17;;;16.80;99.90;;;;;;5022328;28;20061;-69
2022/07/03 03:22:37;;;;;;;3.38;2.08;;;16.80;99.90;;;;;;5025488;28;20121;-70
2022/07/03 03:25:03;;;;;;;5.20;2.13;;;16.80;99.90;;;;;;5024691;28;20030;-70
2022/07/03 03:27:29;;;;;;;2.58;1.63;;;16.80;99.90;;;;;;5026024;28;20733;-69
2022/07/03 03:29:55;;;;;;;2.55;2.00;;;16.80;99.90;;;;;;5025882;28;20041;-70
2022/07/03 03:32:22;;;;;;;2.15;1.75;;;16.70;99.90;;;;;;5025121;28;20093;-69
2022/07/03 03:34:49;;;;;;;1.60;1.45;;;16.70;99.90;;;;;;5025216;28;20026;-69
2022/07/03 03:37:15;;;;;;;3.97;2.13;;;16.70;99.90;;;;;;5024806;28;20029;-69
2022/07/03 03:39:41;;;;;;;2.15;1.63;;;16.70;99.90;;;;;;5024788;28;20623;-69
2022/07/03 03:42:08;;;;;;;5.75;2.90;;;16.70;99.90;;;;;;5025534;28;20037;-70
2022/07/03 03:44:34;;;;;;;3.67;2.00;;;16.60;99.90;;;;;;5025343;28;20017;-70
2022/07/03 03:47:00;;;;;;;3.40;1.90;;;16.70;99.90;;;;;;5023558;28;20456;-69
2022/07/03 03:49:27;;;;;;;5.05;2.50;;;16.70;99.90;;;;;;5025155;28;20026;-69
2022/07/03 03:51:52;;;;;;;2.95;2.00;;;16.70;99.90;;;;;;5024801;28;20524;-68
2022/07/03 03:54:18;;;;;;;1.63;1.45;;;16.80;99.90;;;;;;5025008;28;20568;-69
2022/07/03 03:56:44;;;;;;;4.97;2.38;;;16.80;99.90;;;;;;5024735;28;20025;-70
2022/07/03 03:59:09;;;;;;;2.33;2.03;;;16.80;99.90;;;;;;5024195;28;20037;-68
2022/07/03 04:01:35;;;;;;;2.97;2.00;;;16.80;99.90;;;;;;5016965;28;20046;-70
2022/07/03 04:04:00;;;;;;;3.60;2.10;;;16.80;99.90;;;;;;5023599;28;20470;-68
2022/07/03 04:06:26;;;;;;;2.63;2.13;;;16.80;99.90;;;;;;5024236;28;20084;-69
2022/07/03 04:08:52;;;;;;;3.53;2.05;;;16.90;99.90;;;;;;5024786;28;20080;-69
2022/07/03 04:11:18;;;;;;;3.03;2.00;;;16.90;99.90;;;;;;5021345;28;20065;-69
2022/07/03 04:13:45;;;;;;;2.45;1.80;;;16.90;99.90;;;;;;5022896;28;20065;-69
2022/07/03 04:16:11;;;;;;;3.13;1.88;;;17.00;99.90;;;;;;5021461;28;20374;-69
2022/07/03 04:18:37;;;;;;;4.60;2.03;;;17.00;99.90;;;;;;5021537;28;20140;-69
2022/07/03 04:21:05;;;;;;;2.88;1.90;;;17.00;99.90;;;;;;5017956;28;20030;-69
2022/07/03 04:23:31;;;;;;;3.25;2.03;;;17.10;99.90;;;;;;5022072;28;20049;-69
2022/07/03 04:26:06;;;;;;;4.70;2.22;;;17.20;99.90;;;;;;5024115;28;20085;-69
2022/07/03 04:28:33;;;;;;;3.15;1.88;;;17.20;99.90;;;;;;5022761;28;20410;-69
2022/07/03 04:31:00;;;;;;;2.67;2.20;;;17.30;99.90;;;;;;5023645;28;20446;-68
2022/07/03 04:33:25;;;;;;;3.45;2.15;;;17.30;99.90;;;;;;5024159;28;20084;-70
2022/07/03 04:35:51;;;;;;;3.55;2.42;;;17.40;99.90;;;;;;5023539;28;20723;-69
2022/07/03 04:38:16;;;;;;;4.38;2.70;;;17.40;99.90;;;;;;5023955;28;20056;-69
2022/07/03 04:40:42;;;;;;;4.15;2.08;;;17.40;99.90;;;;;;5023464;28;20089;-68
2022/07/03 04:43:07;;;;;;;5.93;2.10;;;17.50;99.90;;;;;;5019500;28;20117;-68
2022/07/03 04:45:33;;;;;;;3.35;2.25;;;17.50;99.90;;;;;;5022182;28;20054;-70
2022/07/03 04:48:00;;;;;;;4.10;2.60;;;17.60;99.90;;;;;;5004682;28;20073;-70
2022/07/03 04:50:26;;;;;;;4.28;2.50;;;17.60;99.90;;;;;;5016170;28;20029;-71
2022/07/03 04:52:51;;;;;;;3.47;2.35;;;17.60;99.90;;;;;;5021764;28;20104;-68
2022/07/03 04:55:17;;;;;;;4.05;2.00;;;17.70;99.90;;;;;;5020723;28;20370;-69
2022/07/03 04:57:43;;;;;;;6.93;2.75;;;17.60;99.90;;;;;;5020283;28;20022;-69
2022/07/03 05:00:09;;;;;;;4.30;1.90;;;17.50;99.90;;;;;;5019753;28;20030;-69
2022/07/03 05:02:35;;;;;;;2.30;1.63;;;17.60;99.90;;;;;;5019075;28;20034;-69
2022/07/03 05:05:01;;;;;;;3.50;2.47;;;17.50;99.90;;;;;;5020204;28;20030;-70
2022/07/03 05:07:27;;;;;;;3.45;1.98;;;17.60;99.90;;;;;;5021040;28;20036;-69
2022/07/03 05:09:52;;;;;;;4.55;2.22;;;17.60;99.90;;;;;;5017295;28;20057;-68
2022/07/03 05:12:18;;;;;;;3.80;2.60;;;17.60;99.90;;;;;;5023316;28;20054;-68
2022/07/03 05:14:43;;;;;;;3.97;2.50;;;17.60;99.90;;;;;;5023478;28;20022;-68
2022/07/03 05:17:09;;;;;;;5.88;2.63;;;17.60;99.90;;;;;;5023235;28;20037;-69
2022/07/03 05:19:37;;;;;;;2.70;2.17;;;17.80;99.90;;;;;;5023694;28;20390;-68
2022/07/03 05:22:03;;;;;;;4.68;2.50;;;17.80;99.90;;;;;;5022584;28;20068;-69
2022/07/03 05:24:29;;;;;;;3.88;2.38;;;17.80;99.90;;;;;;5022730;28;20072;-69
2022/07/03 05:26:55;;;;;;;4.25;2.92;;;17.90;99.90;;;;;;5022104;28;20030;-70
2022/07/03 05:29:20;;;;;;;4.65;2.60;;;18.00;99.90;;;;;;5022067;28;20075;-68
2022/07/03 05:31:46;;;;;;;5.72;2.55;;;18.10;99.90;;;;;;5022317;28;20048;-69
2022/07/03 05:34:12;;;;;;;3.38;2.30;;;18.20;99.90;;;;;;5023042;28;20018;-68
2022/07/03 05:36:38;;;;;;;5.18;2.30;;;18.40;99.90;;;;;;5022983;28;20081;-69
2022/07/03 05:41:48;;;;;;;4.75;2.50;;;18.60;99.90;;;;;;5022287;28;20044;-68
2022/07/03 05:44:13;;;;;;;3.33;2.00;;;18.70;99.90;;;;;;5021065;28;20124;-70
2022/07/03 05:46:39;;;;;;;3.33;2.17;;;18.80;99.90;;;;;;5019984;28;20057;-70
2022/07/03 05:49:05;;;;;;;2.25;1.50;;;18.90;99.90;;;;;;5020837;28;20049;-70
2022/07/03 05:51:31;;;;;;;19.50;2.70;;;19.00;99.90;;;;;;5021590;28;20038;-70
2022/07/03 05:53:56;;;;;;;4.35;2.28;;;19.20;99.90;;;;;;5021164;28;20022;-70
2022/07/03 05:56:22;;;;;;;3.10;2.15;;;19.30;99.90;;;;;;5022274;28;20026;-69
2022/07/03 05:58:47;;;;;;;3.05;1.95;;;19.40;99.90;;;;;;5022523;28;20030;-69
2022/07/03 06:01:13;;;;;;;4.38;2.03;;;19.40;99.90;;;;;;5021109;28;20548;-68
2022/07/03 06:03:39;;;;;;;4.30;2.00;;;19.60;99.90;;;;;;5021269;28;20582;-70
2022/07/03 06:06:05;;;;;;;7.55;2.45;;;19.60;99.90;;;;;;5021833;28;20018;-72
2022/07/03 06:08:30;;;;;;;2.13;1.80;;;19.70;99.90;;;;;;5020345;28;20127;-72
2022/07/03 06:10:56;;;;;;;4.13;1.85;;;19.70;99.90;;;;;;5021851;28;20025;-71
2022/07/03 06:13:22;;;;;;;2.17;1.20;;;19.80;99.90;;;;;;5021938;28;20446;-70
2022/07/03 06:15:48;;;;;;;1.83;1.58;;;19.80;99.90;;;;;;5021606;28;20049;-72
2022/07/03 06:18:13;;;;;;;2.97;1.73;;;19.80;99.90;;;;;;5020311;28;20026;-71
2022/07/03 06:20:39;;;;;;;5.75;1.95;;;19.90;99.90;;;;;;5021850;28;20076;-70
2022/07/03 06:23:04;;;;;;;5.40;1.80;;;19.90;99.90;;;;;;5020450;28;20072;-71
2022/07/03 06:25:30;;;;;;;1.75;1.55;;;19.90;99.90;;;;;;5021523;28;20030;-71
2022/07/03 06:27:55;;;;;;;3.13;1.60;;;20.00;99.90;;;;;;5022011;28;20030;-71
2022/07/03 06:30:21;;;;;;;4.05;1.83;;;20.00;99.90;;;;;;5022119;28;20064;-71
2022/07/03 06:32:46;;;;;;;3.60;1.30;;;20.00;99.90;;;;;;5021221;28;20040;-70
2022/07/03 06:35:12;;;;;;;2.60;1.73;;;20.00;99.90;;;;;;5020163;28;20029;-71
2022/07/03 06:37:38;;;;;;;6.03;2.08;;;20.00;99.90;;;;;;5021133;28;20034;-71
2022/07/03 06:40:04;;;;;;;2.85;1.83;;;20.00;99.90;;;;;;5019543;28;20030;-71
2022/07/03 06:42:30;;;;;;;3.00;1.70;;;20.10;99.90;;;;;;5021898;28;20064;-73
2022/07/03 06:44:56;;;;;;;2.17;1.50;;;20.10;99.90;;;;;;5019533;28;20034;-71
2022/07/03 06:47:21;;;;;;;6.22;2.00;;;20.10;99.90;;;;;;5019877;28;20077;-70
2022/07/03 06:49:47;;;;;;;9.35;2.63;;;20.20;99.90;;;;;;5020597;28;20029;-71
2022/07/03 06:52:12;;;;;;;2.03;1.33;;;20.20;99.90;;;;;;5019656;28;20141;-71
2022/07/03 06:54:41;;;;;;;3.30;1.42;;;20.30;99.90;;;;;;5018074;28;20034;-71
2022/07/03 06:57:07;;;;;;;2.30;1.27;;;20.30;99.90;;;;;;5021551;28;20037;-72
2022/07/03 06:59:33;;;;;;;2.90;1.90;;;20.50;99.90;;;;;;5019072;28;20072;-71
2022/07/03 07:01:59;;;;;;;2.08;1.58;;;20.60;99.90;;;;;;5020549;28;20129;-71
2022/07/03 07:04:24;;;;;;;6.90;2.22;;;20.70;99.90;;;;;;5022440;28;20109;-70
2022/07/03 07:06:50;;;;;;;3.33;2.00;;;20.90;99.90;;;;;;5020152;28;20022;-71
2022/07/03 07:09:15;;;;;;;2.30;1.38;;;21.00;99.90;;;;;;5021949;28;20025;-71
2022/07/03 07:11:41;;;;;;;2.95;1.48;;;21.00;99.90;;;;;;5020111;28;20026;-72
2022/07/03 07:14:06;;;;;;;2.08;1.80;;;21.00;99.90;;;;;;5020223;28;20525;-71
2022/07/03 07:16:32;;;;;;;4.20;2.40;;;21.10;99.90;;;;;;5021376;28;20026;-72
2022/07/03 07:18:58;;;;;;;2.65;1.80;;;21.10;99.90;;;;;;5021026;28;20504;-72
2022/07/03 07:21:23;;;;;;;3.25;1.70;;;21.10;99.90;;;;;;5020006;28;20463;-71
2022/07/03 07:23:49;;;;;;;3.55;1.60;;;21.20;99.90;;;;;;5021095;28;20037;-71
2022/07/03 07:26:14;;;;;;;1.65;1.42;;;21.20;99.90;;;;;;5021277;28;20030;-71
2022/07/03 07:28:40;;;;;;;2.13;1.52;;;21.30;99.90;;;;;;5021394;28;20030;-71
2022/07/03 07:31:06;;;;;;;2.30;1.48;;;21.50;99.90;;;;;;5021081;28;20510;-72
2022/07/03 07:33:31;;;;;;;3.70;1.80;;;21.50;99.90;;;;;;5021705;28;20032;-71
2022/07/03 07:35:57;;;;;;;2.92;1.63;;;21.60;99.90;;;;;;5018483;28;20038;-72
2022/07/03 07:38:27;;;;;;;5.97;1.88;;;21.60;99.90;;;;;;5019114;28;20102;-71
2022/07/03 07:40:53;;;;;;;1.40;1.30;;;21.70;99.90;;;;;;5017581;28;20034;-72
2022/07/03 07:43:18;;;;;;;3.78;1.70;;;21.80;99.90;;;;;;5014994;28;20913;-71
2022/07/03 07:45:44;;;;;;;3.60;1.70;;;21.80;99.90;;;;;;5019553;28;20082;-73
2022/07/03 07:48:10;;;;;;;3.17;1.45;;;21.80;99.90;;;;;;5020126;28;20378;-71
2022/07/03 07:50:37;;;;;;;2.05;1.40;;;21.90;99.90;;;;;;5019386;28;20026;-72
2022/07/03 07:53:02;;;;;;;11.60;1.40;;;21.90;99.90;;;;;;5021659;28;20033;-71
2022/07/03 07:55:28;;;;;;;1.48;1.17;;;22.00;99.90;;;;;;5020682;28;20038;-72
2022/07/03 07:57:54;;;;;;;3.17;1.27;;;22.00;99.90;;;;;;5018170;28;20040;-71
2022/07/03 08:00:21;;;;;;;1.77;1.20;;;22.10;99.90;;;;;;5019555;28;20066;-73
2022/07/03 08:05:36;;;;;;;3.00;1.13;;;22.10;99.90;;;;;;5019058;28;20057;-72
2022/07/03 08:08:08;;;;;;;1.50;1.15;;;22.10;99.90;;;;;;5023364;28;20034;-71
2022/07/03 08:10:42;;;;;;;3.13;1.25;;;22.20;99.90;;;;;;5020000;28;20026;-72
2022/07/03 08:13:09;;;;;;;1.25;0.80;;;22.30;99.90;;;;;;5024852;28;20096;-71
2022/07/03 08:15:35;;;;;;;7.03;0.95;;;22.40;99.90;;;;;;5022487;28;20025;-71
2022/07/03 08:18:01;;;;;;;1.77;1.30;;;22.50;99.90;;;;;;5022616;28;20037;-71
2022/07/03 08:20:28;;;;;;;0.98;0.73;;;22.60;99.90;;;;;;5023190;28;20021;-71
2022/07/03 08:22:53;;;;;;;1.00;0.90;;;22.70;99.90;;;;;;5024713;28;20034;-70
2022/07/03 08:25:19;;;;;;;2.03;1.15;;;22.80;99.90;;;;;;5024637;28;20108;-71
2022/07/03 08:27:45;;;;;;;1.48;0.88;;;23.00;99.90;;;;;;5024002;28;20653;-74
2022/07/03 08:30:11;;;;;;;0.98;0.45;;;23.10;99.90;;;;;;5022493;28;20052;-72
2022/07/03 08:32:36;;;;;;;1.13;0.52;;;23.10;99.90;;;;;;5023447;28;20037;-72
2022/07/03 08:35:03;;;;;;;0.57;0.30;;;23.20;99.90;;;;;;5024258;28;20030;-73
2022/07/03 08:37:29;;;;;;;0.95;0.45;;;23.20;99.90;;;;;;5021547;28;20038;-72
2022/07/03 08:39:54;;;;;;;0.20;0.20;;;23.30;99.90;;;;;;5024003;28;20029;-72
2022/07/03 08:42:22;;;;;;;1.35;0.70;;;23.30;99.90;;;;;;5022568;28;20459;-72
2022/07/03 08:44:54;;;;;;;6.20;0.88;;;23.40;99.90;;;;;;5021412;28;20026;-72
2022/07/03 08:47:21;;;;;;;1.25;0.60;;;23.40;99.90;;;;;;5021375;28;20437;-72
2022/07/03 08:49:46;;;;;;;1.65;0.80;;;23.50;99.90;;;;;;5022489;28;20542;-73
2022/07/03 08:52:12;;;;;;;3.55;0.70;;;23.60;99.90;;;;;;5019657;28;20046;-73
2022/07/03 08:54:38;;;;;;;0.65;0.52;;;23.70;99.90;;;;;;5023118;28;20056;-73
2022/07/03 08:57:05;;;;;;;0.93;0.70;;;23.70;99.90;;;;;;5020946;28;20077;-73
2022/07/03 08:59:43;;;;;;;0.90;0.70;;;23.80;99.90;;;;;;5020710;28;20045;-74
2022/07/03 09:02:08;;;;;;;1.55;0.55;;;23.90;99.90;;;;;;5021215;28;20042;-73
2022/07/03 09:04:38;;;;;;;0.50;0.50;;;24.00;99.90;;;;;;5019903;28;20052;-73
2022/07/03 09:07:07;;;;;;;1.77;0.82;;;24.10;99.90;;;;;;5020578;28;20017;-73
2022/07/03 09:09:33;;;;;;;0.75;0.50;;;24.30;99.90;;;;;;5020601;28;20462;-70
2022/07/03 09:11:59;;;;;;;0.70;0.70;;;24.30;99.90;;;;;;5020288;28;20033;-72
2022/07/03 09:14:25;;;;;;;1.00;0.70;;;24.40;99.90;;;;;;5015042;28;20030;-72
2022/07/03 09:16:51;;;;;;;0.35;0.30;;;24.50;99.90;;;;;;5017509;28;20069;-71
2022/07/03 09:19:43;;;;;;;5.07;0.80;;;24.60;99.90;;;;;;5016115;28;20069;-71
2022/07/03 09:22:24;;;;;;;0.88;0.50;;;24.60;99.90;;;;;;5019855;28;20038;-72
2022/07/03 09:24:54;;;;;;;0.28;0.20;;;24.70;99.90;;;;;;5021333;28;20029;-72
2022/07/03 09:27:26;;;;;;;2.28;0.73;;;24.70;99.90;;;;;;5021366;28;20026;-72
2022/07/03 09:30:06;;;;;;;0.55;0.35;;;24.80;99.90;;;;;;5021377;28;20049;-71
2022/07/03 09:32:38;;;;;;;0.73;0.47;;;24.80;99.90;;;;;;5015615;28;20084;-73
2022/07/03 09:35:23;;;;;;;1.65;0.50;;;24.90;99.90;;;;;;5021974;28;20026;-72
2022/07/03 09:38:10;;;;;;;2.47;0.70;;;25.00;99.90;;;;;;5018771;28;20083;-74
2022/07/03 09:40:54;;;;;;;0.70;0.60;;;25.00;99.90;;;;;;5019413;28;20042;-74
2022/07/03 09:43:30;;;;;;;0.53;0.40;;;25.10;99.90;;;;;;5021839;28;20475;-71
2022/07/03 09:46:03;;;;;;;0.47;0.25;;;25.10;99.90;;;;;;5020080;28;20071;-71
2022/07/03 09:48:42;;;;;;;0.90;0.50;;;25.20;99.90;;;;;;5020420;28;20057;-72
2022/07/03 09:51:13;;;;;;;0.47;0.35;;;25.20;99.90;;;;;;5022768;28;20025;-70
2022/07/03 09:54:02;;;;;;;0.65;0.22;;;25.20;99.90;;;;;;5022251;28;20030;-72
2022/07/03 09:56:38;;;;;;;4.07;0.50;;;25.20;99.90;;;;;;5022040;28;20089;-72
2022/07/03 09:59:11;;;;;;;0.30;0.30;;;25.30;99.90;;;;;;5022432;28;20104;-71
2022/07/03 10:01:51;;;;;;;4.22;0.63;;;25.30;99.90;;;;;;5020368;28;20041;-69
2022/07/03 10:04:23;;;;;;;0.38;0.35;;;25.40;99.90;;;;;;5019034;28;20026;-71
2022/07/03 10:06:57;;;;;;;1.30;0.55;;;25.40;99.90;;;;;;5022395;28;20033;-71
2022/07/03 10:09:27;;;;;;;2.15;0.50;;;25.50;99.90;;;;;;5022887;28;20025;-71
2022/07/03 10:11:54;;;;;;;0.50;0.43;;;25.50;99.90;;;;;;5022166;28;20053;-71
2022/07/03 10:14:22;;;;;;;0.75;0.38;;;25.60;99.90;;;;;;5022359;28;20406;-71
2022/07/03 10:16:48;;;;;;;0.57;0.40;;;25.70;99.90;;;;;;5022658;28;20037;-71
2022/07/03 10:19:18;;;;;;;0.57;0.57;;;25.70;99.90;;;;;;5022412;28;20030;-71
2022/07/03 10:21:49;;;;;;;0.65;0.57;;;25.50;99.90;;;;;;5022189;28;20026;-70
2022/07/03 10:24:17;;;;;;;0.38;0.38;;;25.60;99.90;;;;;;5022149;28;20046;-72
2022/07/03 10:26:43;;;;;;;1.10;0.50;;;25.60;99.90;;;;;;5021536;28;20034;-70
2022/07/03 10:29:10;;;;;;;0.40;0.40;;;25.50;99.90;;;;;;5019988;28;20030;-71
2022/07/03 10:31:51;;;;;;;1.25;0.57;;;25.50;99.90;;;;;;5015029;28;20032;-70
2022/07/03 10:46:10;;;;;;;0.52;0.43;;;25.60;99.90;;;;;;5019822;28;20076;-71
2022/07/03 10:48:55;;;;;;;1.45;0.50;;;26.00;99.90;;;;;;5020869;28;20032;-72
2022/07/03 10:51:21;;;;;;;0.75;0.45;;;26.20;99.90;;;;;;5019357;28;20034;-73
2022/07/03 10:53:48;;;;;;;1.15;0.63;;;26.10;99.90;;;;;;5020104;28;20061;-76
2022/07/03 10:56:19;;;;;;;1.08;0.77;;;26.00;99.90;;;;;;5015677;28;20095;-72
2022/07/03 10:58:58;;;;;;;0.65;0.55;;;25.90;99.90;;;;;;5018831;28;20105;-72
2022/07/03 11:01:28;;;;;;;2.38;0.60;;;25.80;99.90;;;;;;5019978;28;20025;-72
2022/07/03 11:03:57;;;;;;;0.50;0.45;;;25.80;99.90;;;;;;5020603;28;20030;-72
2022/07/03 11:06:46;;;;;;;1.92;0.80;;;26.10;99.90;;;;;;5018921;28;20022;-72
2022/07/03 11:09:14;;;;;;;1.70;0.50;;;26.40;99.90;;;;;;5020473;28;20049;-72
2022/07/03 11:12:04;;;;;;;1.45;0.80;;;26.50;99.90;;;;;;5018235;28;20061;-72
2022/07/03 11:14:30;;;;;;;3.70;0.70;;;26.50;99.90;;;;;;5020138;28;20030;-72
2022/07/03 11:17:22;;;;;;;1.27;0.57;;;26.80;99.90;;;;;;5019118;28;20021;-72
2022/07/03 11:22:40;;;;;;;1.00;0.68;;;27.10;99.90;;;;;;5020301;28;20101;-73
2022/07/03 11:25:09;;;;;;;1.00;0.75;;;27.00;99.90;;;;;;5018897;28;20081;-73
2022/07/03 11:27:34;;;;;;;0.63;0.50;;;26.90;99.90;;;;;;5020296;28;20022;-70
2022/07/03 11:30:00;;;;;;;0.90;0.52;;;26.80;99.90;;;;;;5019884;28;20072;-71
2022/07/03 11:32:52;;;;;;;0.95;0.60;;;26.60;99.90;;;;;;5019314;28;20026;-72
2022/07/03 11:35:51;;;;;;;0.43;0.40;;;26.50;99.90;;;;;;5012044;28;20121;-73
2022/07/03 11:38:38;;;;;;;1.02;0.50;;;26.40;99.90;;;;;;5000079;28;20441;-73
2022/07/03 11:41:08;;;;;;;0.68;0.50;;;26.40;99.90;;;;;;5001091;28;20085;-73
2022/07/03 11:43:34;;;;;;;1.33;0.82;;;26.60;99.90;;;;;;5003825;28;20057;-74
2022/07/03 11:46:00;;;;;;;4.55;0.60;;;26.90;99.90;;;;;;5004128;28;20034;-73
2022/07/03 11:48:27;;;;;;;1.38;0.75;;;27.10;99.90;;;;;;5003165;28;20023;-71
2022/07/03 11:51:02;;;;;;;2.05;0.77;;;27.50;99.90;;;;;;5002923;28;20033;-74
2022/07/03 11:53:33;;;;;;;1.25;0.70;;;27.70;99.90;;;;;;5003515;28;20094;-73
2022/07/03 11:56:17;;;;;;;0.57;0.50;;;27.80;99.90;;;;;;5002576;28;20031;-73
2022/07/03 11:58:44;;;;;;;0.75;0.70;;;28.00;99.90;;;;;;5004375;28;20022;-71
2022/07/03 12:01:23;;;;;;;2.35;0.73;;;28.30;99.90;;;;;;5004006;28;21560;-71
2022/07/03 12:03:50;;;;;;;1.70;0.98;;;28.30;99.90;;;;;;5004222;28;20030;-68
2022/07/03 12:06:20;;;;;;;0.88;0.55;;;28.20;99.90;;;;;;5003723;28;20098;-69
2022/07/03 12:08:46;;;;;;;1.08;0.93;;;28.00;99.90;;;;;;5003948;28;20023;-74
2022/07/03 12:11:17;;;;;;;2.20;0.65;;;27.90;99.90;;;;;;5004115;28;20121;-73
2022/07/03 12:13:44;;;;;;;1.73;1.02;;;27.90;99.90;;;;;;5004018;28;20089;-73
2022/07/03 12:16:13;;;;;;;0.82;0.82;;;27.70;99.90;;;;;;5003129;28;20054;-72
2022/07/03 12:18:53;;;;;;;5.65;1.08;;;27.50;99.90;;;;;;5002385;28;20040;-72
2022/07/03 12:21:21;;;;;;;1.05;0.80;;;27.30;99.90;;;;;;5003487;28;20549;-73
2022/07/03 12:23:51;;;;;;;1.13;0.80;;;27.00;99.90;;;;;;5001935;28;20114;-74
2022/07/03 12:26:31;;;;;;;1.17;0.70;;;26.80;99.90;;;;;;5000867;28;20053;-76
2022/07/03 12:29:02;;;;;;;2.22;0.88;;;26.70;99.90;;;;;;5002808;28;20058;-72
2022/07/03 12:31:28;;;;;;;1.05;0.90;;;26.60;99.90;;;;;;5003012;28;20343;-72
2022/07/03 12:33:54;;;;;;;1.15;0.75;;;26.50;99.90;;;;;;5002574;28;20026;-72
2022/07/03 12:36:21;;;;;;;0.65;0.50;;;26.50;99.90;;;;;;5003025;28;20041;-73
2022/07/03 12:38:52;;;;;;;0.65;0.40;;;26.50;99.90;;;;;;5002028;28;20110;-73
2022/07/03 12:41:17;;;;;;;1.08;0.68;;;26.40;99.90;;;;;;5002391;28;20030;-71
2022/07/03 12:43:46;;;;;;;1.65;0.68;;;26.30;99.90;;;;;;5003073;28;20034;-72
2022/07/03 12:46:23;;;;;;;0.70;0.60;;;26.30;99.90;;;;;;5003165;28;20030;-72
2022/07/03 12:48:54;;;;;;;0.60;0.45;;;26.60;99.90;;;;;;5002744;28;20053;-73
2022/07/03 12:51:40;;;;;;;0.70;0.40;;;27.00;99.90;;;;;;5003320;28;20168;-74
2022/07/03 12:54:07;;;;;;;5.10;0.60;;;27.40;99.90;;;;;;4999401;28;20077;-70
2022/07/03 12:56:33;;;;;;;1.30;0.75;;;27.80;99.90;;;;;;4993406;28;20074;-70
2022/07/03 12:59:18;;;;;;;0.57;0.47;;;28.30;99.90;;;;;;5001574;28;20026;-70
2022/07/03 13:02:01;;;;;;;0.45;0.38;;;28.60;99.90;;;;;;4997772;28;20090;-73
2022/07/03 13:04:31;;;;;;;0.77;0.70;;;28.90;99.90;;;;;;4995731;28;20030;-70
2022/07/03 13:07:07;;;;;;;0.82;0.43;;;29.10;99.90;;;;;;4996756;28;20030;-70
2022/07/03 13:09:35;;;;;;;1.15;0.80;;;29.20;99.90;;;;;;4991247;28;20038;-72
2022/07/03 13:12:01;;;;;;;1.27;0.80;;;29.40;99.90;;;;;;5001486;28;20030;-69
2022/07/03 13:14:27;;;;;;;0.75;0.70;;;29.60;99.90;;;;;;5002448;28;20328;-69
2022/07/03 13:16:55;;;;;;;1.27;0.80;;;29.70;99.90;;;;;;5001702;28;20462;-70
2022/07/03 13:19:29;;;;;;;0.40;0.40;;;29.90;99.90;;;;;;5002794;28;20022;-71
2022/07/03 13:21:58;;;;;;;1.98;0.60;;;29.90;99.90;;;;;;5002307;28;20030;-73
2022/07/03 13:24:24;;;;;;;1.83;0.77;;;29.50;99.90;;;;;;5001223;28;20030;-72